MA56 weather

Boston Scientific Natick Heliport
Natick, Massachusetts, United States

Public forecast

Using degrees Fahrenheit for public forecast. Weather courtesy of forecast.io.

METAR (pilot weather report)

Closest report is Laurence G Hanscom Field, 10.6 nm (19.7 km) NNE. Retrieved 2019/09/21 08:51 UTC (1 hour ago):

KBED 210851Z AUTO 00000KT 10SM CLR 13/09 A3014 RMK AO2 SLP218 T01280094 53005

TAF (pilot weather forecast)

Closest forecast is Laurence G Hanscom Field, 10.6 nm (19.7 km) NNE. Retrieved 2019/09/21 06:27 UTC (3 hours ago):

TAF KBED 210524Z 2106/2206 00000KT P6SM SKC FM211300 31003KT P6SM SKC FM211800 23003KT P6SM FEW250 FM212000 18003KT P6SM SKC FM212300 15003KT P6SM SKC